Sumerduck, Virginia
Current Conditions -  °F | °C
As of 12:55 PM on Sunday 21 Dec 2014 (Local Time) from KHWY Reporting Station
Clear Clear  
Wind Chill: 42°   Ceiling: Unl
Heat Index: 42°   Visibility: 10mi
Dew Point: 32°   Wind: 0mph
Humidity: 66%   Direction: NA
Pressure: 30.3"   Gusts: NA
Location:  38.47°N, 77.71°W
Report Text: KHWY 211755Z AUTO 00000KT 10SM CLR 06/00 A3030 RMK AO2 T00581002 10061 20003
Loading
Personal Weather Stations






























Interactive Weather Map New forecast layout! Learn more

10-Day Weather Forecast

Advertisements
Track Severe Weather on mobile